createdAt,value
2022-10-20T00:01:28.012Z,101488.03
2022-10-20T00:03:56.629Z,101479.25
2022-10-20T00:06:32.828Z,101488.91
2022-10-20T00:09:04.191Z,101488.88
2022-10-20T00:11:32.451Z,101487.06
2022-10-20T00:14:01.644Z,101486.16
2022-10-20T00:16:30.839Z,101492.31
2022-10-20T00:18:59.298Z,101483.50
2022-10-20T00:21:28.363Z,101486.97
2022-10-20T00:23:55.806Z,101482.56
2022-10-20T00:26:26.645Z,101475.53
2022-10-20T00:28:55.130Z,101483.44
2022-10-20T00:31:24.429Z,101472.91
2022-10-20T00:33:51.886Z,101469.41
2022-10-20T00:36:22.497Z,101458.00
2022-10-20T00:38:51.198Z,101453.63
2022-10-20T00:41:21.296Z,101458.91
2022-10-20T00:43:58.214Z,101451.03
2022-10-20T00:46:40.082Z,101445.81
2022-10-20T00:49:23.141Z,101444.94
2022-10-20T00:51:52.843Z,101446.69
2022-10-20T00:54:27.079Z,101442.31
2022-10-20T00:56:57.005Z,101456.34
2022-10-20T00:59:29.989Z,101455.47
2022-10-20T01:01:58.091Z,101455.47
2022-10-20T01:04:30.258Z,101444.09
2022-10-20T01:06:57.971Z,101427.44
2022-10-20T01:09:25.296Z,101417.78
2022-10-20T01:12:40.566Z,101409.03
2022-10-20T01:15:34.941Z,101404.66
2022-10-20T01:18:39.318Z,101402.88
2022-10-20T01:21:31.810Z,101401.16
2022-10-20T01:24:31.108Z,101388.00
2022-10-20T01:27:29.475Z,101377.47
2022-10-20T01:30:02.065Z,101375.72
2022-10-20T01:33:14.256Z,101371.34
2022-10-20T01:36:20.740Z,101373.97
2022-10-20T01:38:54.883Z,101376.59
2022-10-20T01:42:05.345Z,101385.41
2022-10-20T01:44:36.531Z,101381.91
2022-10-20T01:47:05.751Z,101380.16
2022-10-20T01:49:32.835Z,101380.16
2022-10-20T01:52:00.911Z,101374.03
2022-10-20T01:54:30.074Z,101379.31
2022-10-20T01:57:39.906Z,101381.06
2022-10-20T02:00:16.639Z,101380.19
2022-10-20T02:03:31.309Z,101381.06
2022-10-20T02:06:19.605Z,101372.28
2022-10-20T02:09:04.541Z,101370.53
2022-10-20T02:11:46.436Z,101372.28
2022-10-20T02:14:17.579Z,101368.78
2022-10-20T02:16:58.585Z,101367.03
2022-10-20T02:19:31.382Z,101358.25
2022-10-20T02:21:59.141Z,101351.22
2022-10-20T02:24:34.649Z,101340.72
2022-10-20T02:27:16.506Z,101338.09
2022-10-20T02:29:55.558Z,101327.56
2022-10-20T02:32:24.838Z,101316.19
2022-10-20T02:34:52.067Z,101304.78
2022-10-20T02:37:19.128Z,101297.75
2022-10-20T02:39:46.273Z,101294.25
2022-10-20T02:42:13.524Z,101295.13
2022-10-20T02:44:40.591Z,101289.88
2022-10-20T02:47:07.608Z,101288.13
2022-10-20T02:49:34.713Z,101277.63
2022-10-20T02:52:01.750Z,101276.78
2022-10-20T02:54:28.816Z,101263.63
2022-10-20T02:56:56.300Z,101266.28
2022-10-20T02:59:23.280Z,101273.31
2022-10-20T03:01:52.344Z,101259.28
2022-10-20T03:04:19.457Z,101256.69
2022-10-20T03:06:46.566Z,101240.03
2022-10-20T03:09:13.947Z,101238.28
2022-10-20T03:11:40.936Z,101235.66
2022-10-20T03:14:08.006Z,101236.53
2022-10-20T03:16:34.929Z,101240.09
2022-10-20T03:19:05.183Z,101238.34
2022-10-20T03:21:34.535Z,101237.47
2022-10-20T03:24:01.495Z,101227.00
2022-10-20T03:26:28.658Z,101228.75
2022-10-20T03:28:55.574Z,101224.38
2022-10-20T03:31:25.447Z,101225.28
2022-10-20T03:33:52.404Z,101223.53
2022-10-20T03:36:19.406Z,101208.63
2022-10-20T03:38:46.468Z,101212.13
2022-10-20T03:41:13.477Z,101213.94
2022-10-20T03:43:40.766Z,101219.19
2022-10-20T03:46:10.732Z,101213.06
2022-10-20T03:48:39.764Z,101209.53
2022-10-20T03:51:09.396Z,101198.16
2022-10-20T03:53:36.506Z,101203.41
2022-10-20T03:56:12.499Z,101199.06
2022-10-20T03:58:39.647Z,101199.06
2022-10-20T04:01:09.296Z,101197.31
2022-10-20T04:03:36.606Z,101200.81
2022-10-20T04:06:03.800Z,101203.44
2022-10-20T04:08:30.737Z,101199.94
2022-10-20T04:10:58.952Z,101194.69
2022-10-20T04:13:26.070Z,101195.59
2022-10-20T04:15:53.127Z,101191.16
2022-10-20T04:18:20.145Z,101185.91
2022-10-20T04:20:48.909Z,101183.28
2022-10-20T04:23:15.918Z,101179.78
2022-10-20T04:25:47.658Z,101178.03
2022-10-20T04:28:20.255Z,101158.72
2022-10-20T04:30:49.357Z,101158.72
2022-10-20T04:33:17.092Z,101155.25
2022-10-20T04:35:44.291Z,101152.63
2022-10-20T04:38:11.408Z,101153.50
2022-10-20T04:40:38.448Z,101163.16
2022-10-20T04:43:05.557Z,101159.66
2022-10-20T04:45:32.581Z,101141.22
2022-10-20T04:47:59.569Z,101138.63
2022-10-20T04:50:26.585Z,101119.31
2022-10-20T04:52:53.544Z,101129.84
2022-10-20T04:55:20.519Z,101134.25
2022-10-20T04:57:47.491Z,101127.22
2022-10-20T05:00:15.449Z,101126.38
2022-10-20T05:02:42.445Z,101129.91
2022-10-20T05:05:09.914Z,101135.16
2022-10-20T05:07:37.226Z,101145.69
2022-10-20T05:10:05.405Z,101138.72
2022-10-20T05:12:32.371Z,101117.63
2022-10-20T05:14:59.394Z,101107.97
2022-10-20T05:17:28.735Z,101095.66
2022-10-20T05:19:55.799Z,101093.88
2022-10-20T05:22:22.976Z,101107.09
2022-10-20T05:24:50.017Z,101121.09
2022-10-20T05:27:19.858Z,101127.25
2022-10-20T05:29:46.919Z,101126.38
2022-10-20T05:32:14.030Z,101132.50
2022-10-20T05:34:41.057Z,101127.22
2022-10-20T05:37:08.040Z,101115.78
2022-10-20T05:39:35.103Z,101102.63
2022-10-20T05:42:02.195Z,101105.25
2022-10-20T05:44:29.297Z,101114.03
2022-10-20T05:46:56.448Z,101111.41
2022-10-20T05:49:23.610Z,101117.53
2022-10-20T05:51:50.735Z,101109.63
2022-10-20T05:54:17.845Z,101108.75
2022-10-20T05:56:45.141Z,101112.25
2022-10-20T05:59:12.683Z,101118.41
2022-10-20T06:01:48.308Z,101103.50
2022-10-20T06:04:23.954Z,101104.38
2022-10-20T06:06:52.727Z,101104.38
2022-10-20T06:09:21.562Z,101107.88
2022-10-20T06:11:49.225Z,101102.59
2022-10-20T06:14:17.450Z,101112.28
2022-10-20T06:16:44.852Z,101107.91
2022-10-20T06:19:11.995Z,101119.31
2022-10-20T06:21:39.179Z,101128.97
2022-10-20T06:24:07.183Z,101132.53
2022-10-20T06:26:38.797Z,101112.34
2022-10-20T06:29:13.186Z,101118.50
2022-10-20T06:31:49.370Z,101109.72
2022-10-20T06:34:22.788Z,101101.81
2022-10-20T06:36:50.735Z,101101.81
2022-10-20T06:39:22.318Z,101100.06
2022-10-20T06:41:54.440Z,101101.84
2022-10-20T06:44:24.013Z,101099.19
2022-10-20T06:46:52.616Z,101098.34
2022-10-20T06:49:20.272Z,101102.72
2022-10-20T06:51:47.401Z,101095.69
2022-10-20T06:54:14.806Z,101091.31
2022-10-20T06:56:42.052Z,101090.41
2022-10-20T06:59:09.457Z,101082.50
2022-10-20T07:01:38.898Z,101078.09
2022-10-20T07:04:14.989Z,101085.13
2022-10-20T07:06:45.215Z,101079.84
2022-10-20T07:09:19.147Z,101093.03
2022-10-20T07:11:50.203Z,101107.06
2022-10-20T07:14:17.341Z,101095.63
2022-10-20T07:16:44.389Z,101104.44
2022-10-20T07:19:11.567Z,101099.13
2022-10-20T07:21:41.581Z,101105.22
2022-10-20T07:24:12.993Z,101093.81
2022-10-20T07:26:41.684Z,101084.94
2022-10-20T07:29:10.371Z,101097.25
2022-10-20T07:31:44.433Z,101096.38
2022-10-20T07:34:25.159Z,101102.50
2022-10-20T07:36:54.898Z,101096.34
2022-10-20T07:39:22.377Z,101097.19
2022-10-20T07:41:50.079Z,101097.16
2022-10-20T07:44:17.365Z,101095.38
2022-10-20T07:46:44.938Z,101096.22
2022-10-20T07:52:01.325Z,101094.41
2022-10-20T07:54:28.261Z,101099.66
2022-10-20T07:56:55.309Z,101097.91
2022-10-20T07:59:22.548Z,101098.72
2022-10-20T08:01:56.018Z,101085.41
2022-10-20T08:04:25.767Z,101080.03
2022-10-20T08:07:00.347Z,101089.56
2022-10-20T08:09:33.787Z,101089.41
2022-10-20T08:12:06.721Z,101099.03
2022-10-20T08:14:36.188Z,101095.47
2022-10-20T08:17:03.915Z,101092.75
2022-10-20T08:19:45.575Z,101086.50
2022-10-20T08:22:13.480Z,101076.91
2022-10-20T08:24:40.559Z,101067.03
2022-10-20T08:27:07.649Z,101073.09
2022-10-20T08:29:34.657Z,101069.53
2022-10-20T08:32:02.017Z,101082.66
2022-10-20T08:34:29.140Z,101098.31
2022-10-20T08:37:01.341Z,101086.75
2022-10-20T08:39:28.443Z,101075.13
2022-10-20T08:42:07.954Z,101080.28
2022-10-20T08:44:38.177Z,101081.97
2022-10-20T08:47:33.876Z,101086.31
2022-10-20T08:50:04.913Z,101064.94
2022-10-20T08:52:33.467Z,101063.72
2022-10-20T08:55:04.762Z,101056.47
2022-10-20T08:57:36.493Z,101057.34
2022-10-20T09:00:37.707Z,101050.13
2022-10-20T09:03:16.328Z,101055.31
2022-10-20T09:05:51.415Z,101058.84
2022-10-20T09:08:29.654Z,101065.84
2022-10-20T09:10:59.387Z,101063.28
2022-10-20T09:13:30.044Z,101056.19
2022-10-20T09:16:27.180Z,101063.38
2022-10-20T09:19:07.916Z,101054.59
2022-10-20T09:21:40.738Z,101050.22
2022-10-20T09:24:10.473Z,101053.75
2022-10-20T09:27:16.661Z,101056.34
2022-10-20T09:29:48.437Z,101065.94
2022-10-20T09:32:56.300Z,101069.31
2022-10-20T09:35:33.971Z,101062.97
2022-10-20T09:38:09.917Z,101071.75
2022-10-20T09:40:44.580Z,101055.81
2022-10-20T09:43:17.759Z,101061.09
2022-10-20T09:45:56.445Z,101052.38
2022-10-20T09:48:33.092Z,101051.53
2022-10-20T09:51:02.351Z,101056.16
2022-10-20T09:54:01.410Z,101051.88
2022-10-20T09:56:40.264Z,101054.72
2022-10-20T09:59:20.907Z,101048.59
2022-10-20T10:02:23.708Z,101045.06
2022-10-20T10:05:12.237Z,101049.44
2022-10-20T10:07:42.032Z,101057.38
2022-10-20T10:10:30.710Z,101058.19
2022-10-20T10:13:01.243Z,101062.66
2022-10-20T10:15:40.962Z,101050.41
2022-10-20T10:18:25.598Z,101042.59
2022-10-20T10:21:17.252Z,101040.91
2022-10-20T10:23:56.654Z,101032.22
2022-10-20T10:26:55.115Z,101035.78
2022-10-20T10:29:33.699Z,101039.38
2022-10-20T10:32:43.147Z,101033.22
2022-10-20T10:35:41.281Z,101029.75
2022-10-20T10:38:12.785Z,101023.59
2022-10-20T10:41:06.504Z,101034.22
2022-10-20T10:43:57.362Z,101040.44
2022-10-20T10:49:35.348Z,101051.09
2022-10-20T10:52:43.478Z,101048.59
2022-10-20T10:55:49.623Z,101043.47
2022-10-20T10:58:31.734Z,101036.38
2022-10-20T11:01:49.715Z,101031.91
2022-10-20T11:04:47.480Z,101027.47
2022-10-20T11:07:20.031Z,101009.75
2022-10-20T11:09:55.647Z,101016.75
2022-10-20T11:13:17.642Z,101001.69
2022-10-20T11:16:15.419Z,101011.25
2022-10-20T11:19:11.748Z,101006.84
2022-10-20T11:21:52.069Z,101001.59
2022-10-20T11:24:45.818Z,100999.00
2022-10-20T11:27:27.886Z,100985.72
2022-10-20T11:30:15.948Z,100981.38
2022-10-20T11:32:52.219Z,100979.59
2022-10-20T11:35:19.316Z,100972.44
2022-10-20T11:38:15.778Z,100964.28
2022-10-20T11:40:58.730Z,100962.22
2022-10-20T11:43:43.130Z,100963.69
2022-10-20T11:46:48.134Z,100964.06
2022-10-20T11:49:15.171Z,100953.94
2022-10-20T11:52:38.516Z,100959.41
2022-10-20T11:55:18.024Z,100941.09
2022-10-20T11:58:07.747Z,100947.81
2022-10-20T12:01:05.281Z,100952.16
2022-10-20T12:04:03.027Z,100945.69
2022-10-20T12:06:37.819Z,100941.41
2022-10-20T12:09:27.221Z,100940.94
2022-10-20T12:12:12.746Z,100941.66
2022-10-20T12:14:45.469Z,100946.53
2022-10-20T12:17:41.917Z,100954.72
2022-10-20T12:20:20.935Z,100975.31
2022-10-20T12:22:59.260Z,100963.03
2022-10-20T12:25:30.824Z,100965.78
2022-10-20T12:28:30.308Z,100956.72
2022-10-20T12:30:57.555Z,100958.94
2022-10-20T12:34:01.964Z,100965.00
2022-10-20T12:36:38.422Z,100956.53
2022-10-20T12:39:24.842Z,100947.41
2022-10-20T12:42:05.363Z,100948.34
2022-10-20T12:44:43.518Z,100936.00
2022-10-20T12:47:19.767Z,100944.00
2022-10-20T12:50:02.932Z,100918.88
2022-10-20T12:52:38.511Z,100913.09
2022-10-20T12:55:21.227Z,100924.78
2022-10-20T12:57:48.286Z,100909.66
2022-10-20T13:00:30.110Z,100923.66
2022-10-20T13:03:00.314Z,100924.34
2022-10-20T13:05:51.249Z,100920.34
2022-10-20T13:08:31.592Z,100914.94
2022-10-20T13:11:40.929Z,100912.56
2022-10-20T13:14:27.391Z,100914.88
2022-10-20T13:17:09.331Z,100912.69
2022-10-20T13:19:56.383Z,100898.88
2022-10-20T13:22:38.342Z,100892.47
2022-10-20T13:25:51.244Z,100885.78
2022-10-20T13:28:27.794Z,100883.03
2022-10-20T13:31:20.357Z,100867.13
2022-10-20T13:34:05.609Z,100867.94
2022-10-20T13:37:11.843Z,100871.13
2022-10-20T13:39:44.575Z,100865.38
2022-10-20T13:42:40.092Z,100861.53
2022-10-20T13:45:48.901Z,100866.16
2022-10-20T13:48:39.961Z,100862.22
2022-10-20T13:51:47.173Z,100863.47
2022-10-20T13:54:29.080Z,100852.84
2022-10-20T13:56:57.007Z,100851.47
2022-10-20T13:59:28.264Z,100851.66
2022-10-20T14:02:01.080Z,100851.03
2022-10-20T14:04:35.466Z,100845.94
2022-10-20T14:07:13.277Z,100849.53
2022-10-20T14:09:45.373Z,100839.84
2022-10-20T14:12:25.605Z,100847.91
2022-10-20T14:15:01.651Z,100855.16
2022-10-20T14:17:32.389Z,100857.13
2022-10-20T14:20:20.549Z,100858.09
2022-10-20T14:22:48.345Z,100841.38
2022-10-20T14:25:16.312Z,100845.97
2022-10-20T14:27:44.429Z,100844.16
2022-10-20T14:30:17.012Z,100831.81
2022-10-20T14:32:45.899Z,100833.63
2022-10-20T14:35:30.908Z,100830.94
2022-10-20T14:38:15.117Z,100836.22
2022-10-20T14:40:48.703Z,100832.69
2022-10-20T14:43:25.468Z,100829.00
2022-10-20T14:46:02.090Z,100838.84
2022-10-20T14:48:44.541Z,100831.94
2022-10-20T14:51:40.362Z,100832.13
2022-10-20T14:54:39.914Z,100829.06
2022-10-20T14:57:12.868Z,100828.22
2022-10-20T15:00:07.906Z,100829.16
2022-10-20T15:02:43.158Z,100824.66
2022-10-20T15:05:39.781Z,100813.44
2022-10-20T15:08:25.176Z,100811.22
2022-10-20T15:10:56.059Z,100816.06
2022-10-20T15:13:33.324Z,100810.97
2022-10-20T15:16:03.187Z,100808.53
2022-10-20T15:18:30.586Z,100809.44
2022-10-20T15:20:57.951Z,100815.69
2022-10-20T15:23:28.370Z,100817.41
2022-10-20T15:26:14.694Z,100823.53
2022-10-20T15:28:46.104Z,100811.19
2022-10-20T15:31:22.419Z,100814.56
2022-10-20T15:33:58.551Z,100818.03
2022-10-20T15:36:41.735Z,100817.13
2022-10-20T15:39:12.182Z,100815.53
2022-10-20T15:41:40.362Z,100807.69
2022-10-20T15:44:14.597Z,100800.69
2022-10-20T15:46:45.803Z,100803.47
2022-10-20T15:49:13.790Z,100804.56
2022-10-20T15:51:49.343Z,100807.41
2022-10-20T15:54:29.281Z,100797.91
2022-10-20T15:56:59.139Z,100796.44
2022-10-20T15:59:26.621Z,100796.41
2022-10-20T16:01:59.220Z,100801.88
2022-10-20T16:04:26.814Z,100796.84
2022-10-20T16:06:57.925Z,100798.91
2022-10-20T16:09:27.859Z,100794.72
2022-10-20T16:11:54.936Z,100794.00
2022-10-20T16:14:21.949Z,100800.38
2022-10-20T16:16:49.100Z,100793.50
2022-10-20T16:19:17.146Z,100797.09
2022-10-20T16:21:44.099Z,100797.22
2022-10-20T16:24:11.558Z,100800.97
2022-10-20T16:26:38.552Z,100794.06
2022-10-20T16:29:07.580Z,100801.34
2022-10-20T16:31:34.596Z,100804.16
2022-10-20T16:34:07.186Z,100800.75
2022-10-20T16:36:38.491Z,100794.75
2022-10-20T16:39:08.379Z,100791.44
2022-10-20T16:41:37.854Z,100795.97
2022-10-20T16:44:09.262Z,100798.75
2022-10-20T16:46:41.354Z,100798.94
2022-10-20T16:49:08.653Z,100793.78
2022-10-20T16:51:35.624Z,100790.34
2022-10-20T16:54:10.624Z,100792.22
2022-10-20T16:56:40.631Z,100792.31
2022-10-20T16:59:07.887Z,100790.59
2022-10-20T17:01:35.106Z,100792.47
2022-10-20T17:04:02.364Z,100790.78
2022-10-20T17:06:32.765Z,100782.88
2022-10-20T17:09:00.149Z,100779.38
2022-10-20T17:11:30.464Z,100783.88
2022-10-20T17:13:58.954Z,100782.16
2022-10-20T17:16:34.625Z,100782.22
2022-10-20T17:19:02.876Z,100777.00
2022-10-20T17:21:32.353Z,100773.47
2022-10-20T17:23:59.931Z,100774.44
2022-10-20T17:26:34.693Z,100771.81
2022-10-20T17:29:10.063Z,100777.16
2022-10-20T17:31:38.080Z,100772.84
2022-10-20T17:34:07.955Z,100780.00
2022-10-20T17:36:34.951Z,100781.84
2022-10-20T17:39:06.732Z,100781.03
2022-10-20T17:41:34.759Z,100784.63
2022-10-20T17:44:06.800Z,100784.66
2022-10-20T17:46:34.033Z,100772.34
2022-10-20T17:49:04.480Z,100779.44
2022-10-20T17:51:34.482Z,100774.19
2022-10-20T17:54:02.638Z,100760.91
2022-10-20T17:56:39.777Z,100753.84
2022-10-20T18:01:40.817Z,100745.88
2022-10-20T18:04:14.288Z,100752.03
2022-10-20T18:06:42.539Z,100748.50
2022-10-20T18:09:13.490Z,100756.44
2022-10-20T18:11:48.265Z,100766.19
2022-10-20T18:14:17.042Z,100762.69
2022-10-20T18:16:47.907Z,100768.91
2022-10-20T18:19:28.586Z,100766.34
2022-10-20T18:21:58.623Z,100773.44
2022-10-20T18:24:25.613Z,100769.00
2022-10-20T18:26:52.618Z,100767.25
2022-10-20T18:29:19.691Z,100764.59
2022-10-20T18:31:47.637Z,100776.09
2022-10-20T18:34:21.260Z,100767.25
2022-10-20T18:36:51.728Z,100763.72
2022-10-20T18:39:18.780Z,100772.56
2022-10-20T18:41:46.592Z,100774.38
2022-10-20T18:44:19.919Z,100765.56
2022-10-20T18:46:47.723Z,100770.84
2022-10-20T18:49:19.654Z,100763.81
2022-10-20T18:51:47.697Z,100762.91
2022-10-20T18:54:17.323Z,100756.75
2022-10-20T18:56:44.707Z,100755.84
2022-10-20T18:59:19.183Z,100761.16
2022-10-20T19:01:49.790Z,100754.97
2022-10-20T19:04:17.386Z,100758.50
2022-10-20T19:06:47.779Z,100757.63
2022-10-20T19:09:21.558Z,100752.34
2022-10-20T19:14:22.036Z,100753.28
2022-10-20T19:16:49.855Z,100755.94
2022-10-20T19:19:20.408Z,100751.53
2022-10-20T19:21:47.547Z,100748.91
2022-10-20T19:24:21.275Z,100741.81
2022-10-20T19:27:02.142Z,100736.53
2022-10-20T19:29:38.497Z,100740.09
2022-10-20T19:32:08.708Z,100733.94
2022-10-20T19:34:40.070Z,100713.69
2022-10-20T19:37:11.877Z,100716.38
2022-10-20T19:39:41.825Z,100704.06
2022-10-20T19:42:13.364Z,100693.53
2022-10-20T19:44:40.543Z,100694.44
2022-10-20T19:47:08.312Z,100686.56
2022-10-20T19:49:38.290Z,100681.34
2022-10-20T19:52:06.487Z,100673.44
2022-10-20T19:54:33.770Z,100673.53
2022-10-20T19:57:04.710Z,100668.31
2022-10-20T19:59:34.697Z,100664.84
2022-10-20T20:02:02.334Z,100678.09
2022-10-20T20:04:29.508Z,100676.41
2022-10-20T20:07:02.150Z,100671.16
2022-10-20T20:09:32.328Z,100672.06
2022-10-20T20:12:02.019Z,100671.25
2022-10-20T20:14:29.100Z,100670.41
2022-10-20T20:16:57.876Z,100677.47
2022-10-20T20:19:24.916Z,100672.25
2022-10-20T20:21:52.022Z,100669.59
2022-10-20T20:24:19.008Z,100671.41
2022-10-20T20:26:47.032Z,100685.56
2022-10-20T20:29:16.310Z,100671.41
2022-10-20T20:31:43.379Z,100668.81
2022-10-20T20:34:10.440Z,100668.81
2022-10-20T20:36:41.749Z,100675.91
2022-10-20T20:39:09.658Z,100673.22
2022-10-20T20:41:36.779Z,100675.03
2022-10-20T20:44:07.941Z,100690.94
2022-10-20T20:46:36.238Z,100686.56
2022-10-20T20:49:03.560Z,100682.19
2022-10-20T20:51:33.538Z,100670.69
2022-10-20T20:54:01.944Z,100674.22
2022-10-20T20:56:28.970Z,100684.78
2022-10-20T20:59:00.719Z,100680.34
2022-10-20T21:01:31.893Z,100685.66
2022-10-20T21:04:02.435Z,100690.06
2022-10-20T21:06:56.498Z,100705.06
2022-10-20T21:09:21.253Z,100698.94
2022-10-20T21:11:49.181Z,100693.66
2022-10-20T21:14:16.529Z,100692.78
2022-10-20T21:16:43.604Z,100691.06
2022-10-20T21:19:13.351Z,100690.25
2022-10-20T21:21:50.629Z,100684.09
2022-10-20T21:24:21.164Z,100692.06
2022-10-20T21:26:48.830Z,100685.03
2022-10-20T21:29:16.358Z,100683.31
2022-10-20T21:31:43.381Z,100680.69
2022-10-20T21:34:11.724Z,100682.50
2022-10-20T21:36:42.086Z,100695.75
2022-10-20T21:39:17.947Z,100707.22
2022-10-20T21:41:46.180Z,100702.88
2022-10-20T21:44:15.769Z,100710.81
2022-10-20T21:46:47.621Z,100715.22
2022-10-20T21:49:18.583Z,100718.69
2022-10-20T21:51:50.151Z,100708.13
2022-10-20T21:56:54.681Z,100706.34
2022-10-20T21:59:27.182Z,100701.94
2022-10-20T22:02:00.498Z,100699.28
2022-10-20T22:04:40.036Z,100701.91
2022-10-20T22:07:07.054Z,100699.22
2022-10-20T22:09:34.308Z,100696.56
2022-10-20T22:12:04.790Z,100685.91
2022-10-20T22:14:31.794Z,100684.13
2022-10-20T22:17:01.860Z,100692.03
2022-10-20T22:19:34.641Z,100682.31
2022-10-20T22:22:04.254Z,100677.88
2022-10-20T22:24:31.763Z,100676.94
2022-10-20T22:27:01.222Z,100663.66
2022-10-20T22:29:28.901Z,100664.53
2022-10-20T22:32:01.933Z,100663.66
2022-10-20T22:34:28.943Z,100658.34
2022-10-20T22:36:55.965Z,100660.97
2022-10-20T22:39:25.978Z,100645.94
2022-10-20T22:41:55.266Z,100645.91
2022-10-20T22:44:24.887Z,100638.84
2022-10-20T22:46:54.661Z,100630.88
2022-10-20T22:49:21.818Z,100633.50
2022-10-20T22:51:48.861Z,100633.50
2022-10-20T22:54:15.817Z,100636.09
2022-10-20T22:56:45.795Z,100632.59
2022-10-20T22:59:12.845Z,100629.91
2022-10-20T23:01:42.692Z,100633.41
2022-10-20T23:04:09.727Z,100642.22
2022-10-20T23:06:38.798Z,100650.16
2022-10-20T23:09:05.929Z,100644.81
2022-10-20T23:11:33.061Z,100654.50
2022-10-20T23:14:00.088Z,100655.38
2022-10-20T23:16:27.099Z,100665.97
2022-10-20T23:18:57.030Z,100651.81
2022-10-20T23:21:25.136Z,100654.47
2022-10-20T23:23:52.272Z,100651.88
2022-10-20T23:26:21.028Z,100659.84
2022-10-20T23:28:48.775Z,100656.34
2022-10-20T23:31:22.444Z,100655.53
2022-10-20T23:33:55.076Z,100665.25
2022-10-20T23:36:25.356Z,100660.91
2022-10-20T23:38:52.451Z,100660.06
2022-10-20T23:41:21.019Z,100661.88
2022-10-20T23:43:48.246Z,100657.44
2022-10-20T23:46:19.446Z,100648.75
2022-10-20T23:48:52.544Z,100647.91
2022-10-20T23:51:20.709Z,100653.28
2022-10-20T23:53:47.722Z,100660.41
2022-10-20T23:56:14.894Z,100659.56
2022-10-20T23:58:41.863Z,100658.69
